Time,TemperatureF,DewpointF,PressureIn,WindDirection,WindDirectionDegrees,WindSpeedMPH,WindSpeedGustMPH,Humidity,HourlyPrecipIn,Conditions,Clouds,dailyrainin,SoftwareType,DateUTC
2013-10-08 00:00:00,57.8,56.7,30.06,North,359,0.0,12.0,96,0.00,,,0.00,Wunderground v.1.15,2013-10-08 05:00:00,
2013-10-08 00:05:00,57.7,56.6,30.06,North,359,0.0,12.0,96,0.00,,,0.00,Wunderground v.1.15,2013-10-08 05:05:00,
2013-10-08 00:15:00,57.8,56.4,30.06,North,356,0.0,12.0,95,0.00,,,0.00,Wunderground v.1.15,2013-10-08 05:15:00,
2013-10-08 00:20:00,58.0,56.3,30.06,North,356,0.0,12.0,94,0.00,,,0.00,Wunderground v.1.15,2013-10-08 05:20:00,
2013-10-08 00:25:00,57.9,56.2,30.06,North,356,0.0,12.0,94,0.00,,,0.00,Wunderground v.1.15,2013-10-08 05:25:00,
2013-10-08 00:30:00,58.0,56.6,30.06,North,356,0.0,12.0,95,0.00,,,0.00,Wunderground v.1.15,2013-10-08 05:30:00,
2013-10-08 00:35:00,57.9,56.5,30.06,North,356,0.0,12.0,95,0.00,,,0.00,Wunderground v.1.15,2013-10-08 05:35:00,
2013-10-08 00:40:00,57.9,56.5,30.06,NE,53,0.0,12.0,95,0.00,,,0.00,Wunderground v.1.15,2013-10-08 05:40:00,
2013-10-08 00:50:00,58.6,56.9,30.06,NE,53,0.0,12.0,94,0.00,,,0.00,Wunderground v.1.15,2013-10-08 05:50:00,
2013-10-08 00:55:00,58.3,56.6,30.06,NE,53,0.0,12.0,94,0.00,,,0.00,Wunderground v.1.15,2013-10-08 05:55:00,
2013-10-08 01:00:00,58.0,56.6,30.06,NE,42,0.0,12.0,95,0.00,,,0.00,Wunderground v.1.15,2013-10-08 06:00:00,
2013-10-08 01:05:00,57.7,56.0,30.06,NE,42,0.0,12.0,94,0.00,,,0.00,Wunderground v.1.15,2013-10-08 06:05:00,
2013-10-08 01:10:00,57.9,56.5,30.06,NE,42,0.0,12.0,95,0.00,,,0.00,Wunderground v.1.15,2013-10-08 06:10:00,
2013-10-08 01:20:00,57.6,56.2,30.06,NE,42,0.0,12.0,95,0.00,,,0.00,Wunderground v.1.15,2013-10-08 06:20:00,
2013-10-08 01:25:00,57.3,56.2,30.06,NE,42,0.0,12.0,96,0.00,,,0.00,Wunderground v.1.15,2013-10-08 06:25:00,
2013-10-08 01:30:00,57.4,56.3,30.06,NE,42,0.0,12.0,96,0.00,,,0.00,Wunderground v.1.15,2013-10-08 06:30:00,
2013-10-08 01:35:00,57.2,55.5,30.06,NE,42,0.0,12.0,94,0.00,,,0.00,Wunderground v.1.15,2013-10-08 06:35:00,
2013-10-08 01:40:00,57.2,55.5,30.05,NNE,22,0.0,12.0,94,0.00,,,0.00,Wunderground v.1.15,2013-10-08 06:40:00,
2013-10-08 01:45:00,57.2,55.5,30.05,North,1,1.0,12.0,94,0.00,,,0.00,Wunderground v.1.15,2013-10-08 06:45:00,
2013-10-08 01:55:00,57.2,55.2,30.05,NNW,342,1.0,12.0,93,0.00,,,0.00,Wunderground v.1.15,2013-10-08 06:55:00,
2013-10-08 02:00:00,57.3,55.6,30.05,NNW,342,0.0,12.0,94,0.00,,,0.00,Wunderground v.1.15,2013-10-08 07:00:00,
2013-10-08 02:05:00,57.2,55.5,30.05,NNW,342,0.0,12.0,94,0.00,,,0.00,Wunderground v.1.15,2013-10-08 07:05:00,
2013-10-08 02:10:00,56.8,55.1,30.05,NNW,342,0.0,12.0,94,0.00,,,0.00,Wunderground v.1.15,2013-10-08 07:10:00,
2013-10-08 02:15:00,56.6,55.2,30.05,NNW,342,0.0,12.0,95,0.00,,,0.00,Wunderground v.1.15,2013-10-08 07:15:00,
2013-10-08 02:25:00,56.9,55.2,30.05,NNW,342,0.0,12.0,94,0.00,,,0.00,Wunderground v.1.15,2013-10-08 07:25:00,
2013-10-08 02:30:00,56.9,55.2,30.05,NNW,342,0.0,12.0,94,0.00,,,0.00,Wunderground v.1.15,2013-10-08 07:30:00,
2013-10-08 02:35:00,56.8,55.1,30.05,NNW,342,0.0,12.0,94,0.00,,,0.00,Wunderground v.1.15,2013-10-08 07:35:00,
2013-10-08 02:40:00,56.6,54.9,30.05,NNW,342,0.0,12.0,94,0.00,,,0.00,Wunderground v.1.15,2013-10-08 07:40:00,
2013-10-08 02:45:00,56.5,54.8,30.05,NNW,342,0.0,12.0,94,0.00,,,0.00,Wunderground v.1.15,2013-10-08 07:45:00,
2013-10-08 02:50:00,56.5,54.8,30.05,NNW,330,1.0,12.0,94,0.00,,,0.00,Wunderground v.1.15,2013-10-08 07:50:00,
2013-10-08 02:55:00,56.4,54.7,30.04,NNW,330,1.0,12.0,94,0.00,,,0.00,Wunderground v.1.15,2013-10-08 07:55:00,
2013-10-08 03:00:00,56.4,54.7,30.04,NNW,330,0.0,12.0,94,0.00,,,0.00,Wunderground v.1.15,2013-10-08 08:00:00,
2013-10-08 03:05:00,56.5,54.8,30.04,NNW,330,0.0,12.0,94,0.00,,,0.00,Wunderground v.1.15,2013-10-08 08:05:00,
2013-10-08 03:10:00,56.5,54.8,30.04,NNW,330,0.0,12.0,94,0.00,,,0.00,Wunderground v.1.15,2013-10-08 08:10:00,
2013-10-08 03:15:00,56.5,54.8,30.04,NNW,330,0.0,12.0,94,0.00,,,0.00,Wunderground v.1.15,2013-10-08 08:15:00,
2013-10-08 03:20:00,56.4,54.7,30.04,NNW,330,0.0,12.0,94,0.00,,,0.00,Wunderground v.1.15,2013-10-08 08:20:00,
2013-10-08 03:30:00,56.2,54.5,30.04,NNW,330,0.0,12.0,94,0.00,,,0.00,Wunderground v.1.15,2013-10-08 08:30:00,
2013-10-08 03:35:00,56.0,54.3,30.04,NNW,330,0.0,12.0,94,0.00,,,0.00,Wunderground v.1.15,2013-10-08 08:35:00,
2013-10-08 03:40:00,55.9,54.5,30.04,NNW,330,0.0,12.0,95,0.00,,,0.00,Wunderground v.1.15,2013-10-08 08:40:00,
2013-10-08 03:45:00,55.9,54.5,30.04,NNW,330,0.0,12.0,95,0.00,,,0.00,Wunderground v.1.15,2013-10-08 08:45:00,
2013-10-08 03:50:00,55.9,54.5,30.04,NNW,329,0.0,12.0,95,0.00,,,0.00,Wunderground v.1.15,2013-10-08 08:50:00,
2013-10-08 04:00:00,55.7,54.3,30.04,NNW,328,0.0,12.0,95,0.00,,,0.00,Wunderground v.1.15,2013-10-08 09:00:00,
2013-10-08 04:05:00,55.6,54.2,30.04,NNW,328,0.0,12.0,95,0.00,,,0.00,Wunderground v.1.15,2013-10-08 09:05:00,
2013-10-08 04:10:00,55.5,54.1,30.04,NNW,328,0.0,12.0,95,0.00,,,0.00,Wunderground v.1.15,2013-10-08 09:10:00,
2013-10-08 04:15:00,55.4,54.3,30.04,NNW,328,0.0,12.0,96,0.00,,,0.00,Wunderground v.1.15,2013-10-08 09:15:00,
2013-10-08 04:20:00,55.3,54.2,30.04,NNW,327,0.0,12.0,96,0.00,,,0.00,Wunderground v.1.15,2013-10-08 09:20:00,
2013-10-08 04:25:00,55.3,54.2,30.04,NNW,327,0.0,12.0,96,0.00,,,0.00,Wunderground v.1.15,2013-10-08 09:25:00,
2013-10-08 04:35:00,55.0,53.6,30.04,NNW,342,0.0,12.0,95,0.00,,,0.00,Wunderground v.1.15,2013-10-08 09:35:00,
2013-10-08 04:40:00,54.9,53.5,30.04,North,360,0.0,12.0,95,0.00,,,0.00,Wunderground v.1.15,2013-10-08 09:40:00,
2013-10-08 04:45:00,54.8,53.4,30.04,North,360,0.0,12.0,95,0.00,,,0.00,Wunderground v.1.15,2013-10-08 09:45:00,
2013-10-08 04:50:00,54.7,53.6,30.04,North,360,0.0,12.0,96,0.00,,,0.00,Wunderground v.1.15,2013-10-08 09:50:00,
2013-10-08 04:55:00,54.7,53.6,30.04,North,360,0.0,12.0,96,0.00,,,0.00,Wunderground v.1.15,2013-10-08 09:55:00,
2013-10-08 05:05:00,54.8,53.7,30.05,North,359,0.0,12.0,96,0.00,,,0.00,Wunderground v.1.15,2013-10-08 10:05:00,
2013-10-08 05:10:00,54.7,53.6,30.05,North,359,0.0,12.0,96,0.00,,,0.00,Wunderground v.1.15,2013-10-08 10:10:00,
2013-10-08 05:15:00,54.6,53.5,30.04,North,359,0.0,12.0,96,0.00,,,0.00,Wunderground v.1.15,2013-10-08 10:15:00,
2013-10-08 05:20:00,54.6,53.5,30.04,North,359,0.0,12.0,96,0.00,,,0.00,Wunderground v.1.15,2013-10-08 10:20:00,
2013-10-08 05:25:00,54.6,53.5,30.04,NNW,344,0.0,12.0,96,0.00,,,0.00,Wunderground v.1.15,2013-10-08 10:25:00,
2013-10-08 05:30:00,54.7,53.6,30.04,North,356,0.0,12.0,96,0.00,,,0.00,Wunderground v.1.15,2013-10-08 10:30:00,
2013-10-08 05:40:00,54.5,53.4,30.05,North,356,0.0,12.0,96,0.00,,,0.00,Wunderground v.1.15,2013-10-08 10:40:00,
2013-10-08 05:45:00,54.6,53.8,30.05,NW,326,0.0,12.0,97,0.00,,,0.00,Wunderground v.1.15,2013-10-08 10:45:00,
2013-10-08 05:50:00,54.6,53.5,30.05,NW,326,0.0,12.0,96,0.00,,,0.00,Wunderground v.1.15,2013-10-08 10:50:00,
2013-10-08 05:55:00,54.6,53.5,30.06,NW,326,0.0,12.0,96,0.00,,,0.00,Wunderground v.1.15,2013-10-08 10:55:00,
2013-10-08 06:00:00,54.6,53.5,30.06,NW,326,0.0,12.0,96,0.00,,,0.00,Wunderground v.1.15,2013-10-08 11:00:00,
2013-10-08 06:05:00,54.7,53.6,30.06,NNW,345,0.0,12.0,96,0.00,,,0.00,Wunderground v.1.15,2013-10-08 11:05:00,
2013-10-08 06:10:00,54.7,53.6,30.05,NNW,345,0.0,12.0,96,0.00,,,0.00,Wunderground v.1.15,2013-10-08 11:10:00,
2013-10-08 06:20:00,54.8,53.7,30.06,NNW,345,0.0,12.0,96,0.00,,,0.00,Wunderground v.1.15,2013-10-08 11:20:00,
2013-10-08 06:25:00,54.8,53.7,30.06,NNW,344,0.0,12.0,96,0.00,,,0.00,Wunderground v.1.15,2013-10-08 11:25:00,
2013-10-08 06:30:00,54.8,53.7,30.06,NNW,344,0.0,12.0,96,0.00,,,0.00,Wunderground v.1.15,2013-10-08 11:30:00,
2013-10-08 06:35:00,54.7,53.6,30.06,North,360,0.0,12.0,96,0.00,,,0.00,Wunderground v.1.15,2013-10-08 11:35:00,
2013-10-08 06:40:00,54.7,53.6,30.06,North,359,0.0,12.0,96,0.00,,,0.00,Wunderground v.1.15,2013-10-08 11:40:00,
2013-10-08 06:45:00,54.6,53.5,30.06,North,359,0.0,12.0,96,0.00,,,0.00,Wunderground v.1.15,2013-10-08 11:45:00,
2013-10-08 06:50:00,54.6,53.5,30.06,North,1,0.0,12.0,96,0.00,,,0.00,Wunderground v.1.15,2013-10-08 11:50:00,
2013-10-08 06:55:00,54.7,53.6,30.06,North,5,1.0,12.0,96,0.00,,,0.00,Wunderground v.1.15,2013-10-08 11:55:00,
2013-10-08 07:00:00,54.8,53.7,30.06,NNE,15,1.0,12.0,96,0.00,,,0.00,Wunderground v.1.15,2013-10-08 12:00:00,
2013-10-08 07:05:00,54.7,53.6,30.06,North,11,1.0,12.0,96,0.00,,,0.00,Wunderground v.1.15,2013-10-08 12:05:00,
2013-10-08 07:15:00,55.0,53.9,30.06,North,11,0.0,12.0,96,0.00,,,0.00,Wunderground v.1.15,2013-10-08 12:15:00,
2013-10-08 07:20:00,55.2,54.1,30.06,North,10,1.0,12.0,96,0.00,,,0.00,Wunderground v.1.15,2013-10-08 12:20:00,
2013-10-08 07:25:00,55.4,54.0,30.06,North,5,1.0,12.0,95,0.00,,,0.00,Wunderground v.1.15,2013-10-08 12:25:00,
2013-10-08 07:30:00,55.7,54.3,30.06,NNE,13,2.0,2.0,95,0.00,,,0.00,Wunderground v.1.15,2013-10-08 12:30:00,
2013-10-08 07:35:00,56.0,54.3,30.07,NE,43,2.0,3.0,94,0.00,,,0.00,Wunderground v.1.15,2013-10-08 12:35:00,
2013-10-08 07:45:00,56.4,54.4,30.07,NE,45,2.0,12.0,93,0.00,,,0.00,Wunderground v.1.15,2013-10-08 12:45:00,
2013-10-08 07:50:00,56.7,54.7,30.07,NE,44,2.0,2.0,93,0.00,,,0.00,Wunderground v.1.15,2013-10-08 12:50:00,
2013-10-08 07:55:00,56.9,54.9,30.07,NE,45,2.0,12.0,93,0.00,,,0.00,Wunderground v.1.15,2013-10-08 12:55:00,
2013-10-08 08:00:00,57.3,55.0,30.07,NE,46,3.0,3.0,92,0.00,,,0.00,Wunderground v.1.15,2013-10-08 13:00:00,
2013-10-08 08:05:00,57.6,55.0,30.07,NE,37,3.0,12.0,91,0.00,,,0.00,Wunderground v.1.15,2013-10-08 13:05:00,
2013-10-08 08:10:00,57.9,55.3,30.07,NE,43,2.0,2.0,91,0.00,,,0.00,Wunderground v.1.15,2013-10-08 13:10:00,
2013-10-08 08:20:00,58.8,55.9,30.08,NE,37,2.0,12.0,90,0.00,,,0.00,Wunderground v.1.15,2013-10-08 13:20:00,
2013-10-08 08:25:00,59.1,56.2,30.08,NE,39,2.0,12.0,90,0.00,,,0.00,Wunderground v.1.15,2013-10-08 13:25:00,
2013-10-08 08:30:00,59.5,56.3,30.08,NNE,27,2.0,2.0,89,0.00,,,0.00,Wunderground v.1.15,2013-10-08 13:30:00,
2013-10-08 08:35:00,60.1,56.5,30.08,NE,54,2.0,12.0,88,0.00,,,0.00,Wunderground v.1.15,2013-10-08 13:35:00,
2013-10-08 08:40:00,60.7,56.8,30.08,NE,36,2.0,12.0,87,0.00,,,0.00,Wunderground v.1.15,2013-10-08 13:40:00,
2013-10-08 08:50:00,61.3,56.8,30.08,North,352,2.0,12.0,85,0.00,,,0.00,Wunderground v.1.15,2013-10-08 13:50:00,
2013-10-08 08:55:00,61.6,57.0,30.08,ENE,66,2.0,12.0,85,0.00,,,0.00,Wunderground v.1.15,2013-10-08 13:55:00,
2013-10-08 09:00:00,62.0,57.1,30.08,NE,53,2.0,12.0,84,0.00,,,0.00,Wunderground v.1.15,2013-10-08 14:00:00,
2013-10-08 09:05:00,62.2,56.6,30.08,NE,56,2.0,12.0,82,0.00,,,0.00,Wunderground v.1.15,2013-10-08 14:05:00,
2013-10-08 09:10:00,62.3,56.7,30.08,NNE,27,3.0,3.0,82,0.00,,,0.00,Wunderground v.1.15,2013-10-08 14:10:00,
2013-10-08 09:15:00,62.7,56.4,30.09,ENE,60,3.0,6.0,80,0.00,,,0.00,Wunderground v.1.15,2013-10-08 14:15:00,
2013-10-08 09:25:00,63.3,56.7,30.09,ENE,73,3.0,12.0,79,0.00,,,0.00,Wunderground v.1.15,2013-10-08 14:25:00,
2013-10-08 09:30:00,63.3,56.7,30.08,East,79,4.0,12.0,79,0.00,,,0.00,Wunderground v.1.15,2013-10-08 14:30:00,
2013-10-08 09:35:00,63.7,57.4,30.08,East,89,4.0,12.0,80,0.00,,,0.00,Wunderground v.1.15,2013-10-08 14:35:00,
2013-10-08 09:40:00,63.9,56.9,30.09,East,79,4.0,12.0,78,0.00,,,0.00,Wunderground v.1.15,2013-10-08 14:40:00,
2013-10-08 09:45:00,63.9,57.3,30.09,East,84,4.0,12.0,79,0.00,,,0.00,Wunderground v.1.15,2013-10-08 14:45:00,
2013-10-08 09:50:00,64.2,57.2,30.09,ENE,69,4.0,12.0,78,0.00,,,0.00,Wunderground v.1.15,2013-10-08 14:50:00,
2013-10-08 09:55:00,64.4,57.7,30.09,NE,51,4.0,12.0,79,0.00,,,0.00,Wunderground v.1.15,2013-10-08 14:55:00,
2013-10-08 10:00:00,65.1,57.3,30.09,East,87,4.0,12.0,76,0.00,,,0.00,Wunderground v.1.15,2013-10-08 15:00:00,
2013-10-08 10:05:00,65.3,57.2,30.09,East,86,4.0,12.0,75,0.00,,,0.00,Wunderground v.1.15,2013-10-08 15:05:00,
2013-10-08 10:10:00,65.6,57.5,30.09,East,81,4.0,12.0,75,0.00,,,0.00,Wunderground v.1.15,2013-10-08 15:10:00,
2013-10-08 10:20:00,66.0,57.1,30.09,ESE,110,3.0,12.0,73,0.00,,,0.00,Wunderground v.1.15,2013-10-08 15:20:00,
2013-10-08 10:25:00,66.3,57.0,30.09,NE,56,3.0,12.0,72,0.00,,,0.00,Wunderground v.1.15,2013-10-08 15:25:00,
2013-10-08 10:30:00,67.0,57.7,30.09,NE,44,3.0,12.0,72,0.00,,,0.00,Wunderground v.1.15,2013-10-08 15:30:00,
2013-10-08 10:35:00,67.0,56.9,30.09,ESE,122,3.0,12.0,70,0.00,,,0.00,Wunderground v.1.15,2013-10-08 15:35:00,
2013-10-08 10:40:00,67.5,56.6,30.09,East,93,3.0,12.0,68,0.00,,,0.00,Wunderground v.1.15,2013-10-08 15:40:00,
2013-10-08 10:45:00,67.8,57.3,30.09,East,92,3.0,12.0,69,0.00,,,0.00,Wunderground v.1.15,2013-10-08 15:45:00,
2013-10-08 10:50:00,68.1,58.3,30.09,NE,52,2.0,12.0,71,0.00,,,0.00,Wunderground v.1.15,2013-10-08 15:50:00,
2013-10-08 11:00:00,68.6,56.4,30.09,SE,146,4.0,4.0,65,0.00,,,0.00,Wunderground v.1.15,2013-10-08 16:00:00,
2013-10-08 11:05:00,68.6,56.4,30.08,NNE,33,4.0,12.0,65,0.00,,,0.00,Wunderground v.1.15,2013-10-08 16:05:00,
2013-10-08 11:10:00,69.0,56.7,30.08,NE,52,4.0,12.0,65,0.00,,,0.00,Wunderground v.1.15,2013-10-08 16:10:00,
2013-10-08 11:15:00,69.0,56.7,30.09,NE,36,3.0,12.0,65,0.00,,,0.00,Wunderground v.1.15,2013-10-08 16:15:00,
2013-10-08 11:20:00,69.3,56.2,30.09,NE,56,3.0,3.0,63,0.00,,,0.00,Wunderground v.1.15,2013-10-08 16:20:00,
2013-10-08 11:30:00,69.7,57.0,30.09,NE,41,3.0,12.0,64,0.00,,,0.00,Wunderground v.1.15,2013-10-08 16:30:00,
2013-10-08 11:35:00,70.2,57.4,30.08,NE,42,3.0,12.0,64,0.00,,,0.00,Wunderground v.1.15,2013-10-08 16:35:00,
2013-10-08 11:40:00,70.4,57.6,30.08,ENE,73,3.0,3.0,64,0.00,,,0.00,Wunderground v.1.15,2013-10-08 16:40:00,
2013-10-08 11:45:00,70.8,56.7,30.08,NNE,15,3.0,12.0,61,0.00,,,0.00,Wunderground v.1.15,2013-10-08 16:45:00,
2013-10-08 11:50:00,70.8,56.7,30.08,NNW,345,4.0,12.0,61,0.00,,,0.00,Wunderground v.1.15,2013-10-08 16:50:00,
2013-10-08 11:55:00,71.0,56.4,30.08,ENE,64,4.0,12.0,60,0.00,,,0.00,Wunderground v.1.15,2013-10-08 16:55:00,
2013-10-08 12:05:00,71.6,57.0,30.08,East,95,3.0,12.0,60,0.00,,,0.00,Wunderground v.1.15,2013-10-08 17:05:00,
2013-10-08 12:10:00,71.7,56.6,30.08,ESE,106,4.0,4.0,59,0.00,,,0.00,Wunderground v.1.15,2013-10-08 17:10:00,
2013-10-08 12:15:00,72.1,57.4,30.08,NE,48,3.0,12.0,60,0.00,,,0.00,Wunderground v.1.15,2013-10-08 17:15:00,
2013-10-08 12:20:00,72.4,58.2,30.08,NE,43,3.0,3.0,61,0.00,,,0.00,Wunderground v.1.15,2013-10-08 17:20:00,
2013-10-08 12:25:00,72.1,57.4,30.07,NNE,25,3.0,6.0,60,0.00,,,0.00,Wunderground v.1.15,2013-10-08 17:25:00,
2013-10-08 12:35:00,72.2,56.6,30.07,East,87,3.0,12.0,58,0.00,,,0.00,Wunderground v.1.15,2013-10-08 17:35:00,
2013-10-08 12:40:00,72.7,57.5,30.06,North,5,3.0,12.0,59,0.00,,,0.00,Wunderground v.1.15,2013-10-08 17:40:00,
2013-10-08 12:45:00,72.8,56.7,30.06,NE,47,4.0,12.0,57,0.00,,,0.00,Wunderground v.1.15,2013-10-08 17:45:00,
2013-10-08 12:50:00,72.8,57.2,30.06,North,356,4.0,12.0,58,0.00,,,0.00,Wunderground v.1.15,2013-10-08 17:50:00,
2013-10-08 12:55:00,73.5,56.8,30.06,WNW,285,2.0,12.0,56,0.00,,,0.00,Wunderground v.1.15,2013-10-08 17:55:00,
2013-10-08 13:00:00,74.2,56.5,30.06,NNW,337,2.0,12.0,54,0.00,,,0.00,Wunderground v.1.15,2013-10-08 18:00:00,
2013-10-08 13:10:00,73.9,56.2,30.05,NNW,345,3.0,3.0,54,0.00,,,0.00,Wunderground v.1.15,2013-10-08 18:10:00,
2013-10-08 13:15:00,74.1,57.4,30.05,NNW,334,2.0,5.0,56,0.00,,,0.00,Wunderground v.1.15,2013-10-08 18:15:00,
2013-10-08 13:20:00,74.7,55.9,30.05,NNE,14,3.0,12.0,52,0.00,,,0.00,Wunderground v.1.15,2013-10-08 18:20:00,
2013-10-08 13:25:00,74.3,55.0,30.04,NE,39,4.0,12.0,51,0.00,,,0.00,Wunderground v.1.15,2013-10-08 18:25:00,
2013-10-08 13:30:00,74.3,55.5,30.04,East,79,3.0,3.0,52,0.00,,,0.00,Wunderground v.1.15,2013-10-08 18:30:00,
2013-10-08 13:35:00,75.1,57.3,30.03,NNW,328,2.0,12.0,54,0.00,,,0.00,Wunderground v.1.15,2013-10-08 18:35:00,
2013-10-08 13:40:00,75.5,57.2,30.03,North,11,1.0,1.0,53,0.00,,,0.00,Wunderground v.1.15,2013-10-08 18:40:00,
2013-10-08 13:45:00,76.1,56.7,30.03,NW,324,2.0,4.0,51,0.00,,,0.00,Wunderground v.1.15,2013-10-08 18:45:00,
2013-10-08 13:50:00,75.5,56.1,30.03,WNW,295,4.0,12.0,51,0.00,,,0.00,Wunderground v.1.15,2013-10-08 18:50:00,
2013-10-08 13:55:00,75.6,56.2,30.03,NNW,347,3.0,12.0,51,0.00,,,0.00,Wunderground v.1.15,2013-10-08 18:55:00,
2013-10-08 14:00:00,76.0,57.1,30.02,NNE,27,2.0,12.0,52,0.00,,,0.00,Wunderground v.1.15,2013-10-08 19:00:00,
2013-10-08 14:10:00,76.3,57.9,30.02,NNW,339,4.0,12.0,53,0.00,,,0.00,Wunderground v.1.15,2013-10-08 19:10:00,
2013-10-08 14:15:00,76.4,57.5,30.02,West,264,4.0,12.0,52,0.00,,,0.00,Wunderground v.1.15,2013-10-08 19:15:00,
2013-10-08 14:20:00,76.0,57.1,30.02,NW,304,3.0,3.0,52,0.00,,,0.00,Wunderground v.1.15,2013-10-08 19:20:00,
2013-10-08 14:25:00,76.3,56.3,30.02,North,6,3.0,6.0,50,0.00,,,0.00,Wunderground v.1.15,2013-10-08 19:25:00,
2013-10-08 14:30:00,76.2,57.3,30.02,North,356,3.0,3.0,52,0.00,,,0.00,Wunderground v.1.15,2013-10-08 19:30:00,
2013-10-08 14:35:00,76.8,56.8,30.02,NNW,338,3.0,4.0,50,0.00,,,0.00,Wunderground v.1.15,2013-10-08 19:35:00,
2013-10-08 14:45:00,77.1,56.5,30.02,NW,317,4.0,4.0,49,0.00,,,0.00,Wunderground v.1.15,2013-10-08 19:45:00,
2013-10-08 14:50:00,77.1,56.5,30.01,NNE,18,3.0,12.0,49,0.00,,,0.00,Wunderground v.1.15,2013-10-08 19:50:00,
2013-10-08 14:55:00,76.8,58.4,30.01,NNE,13,4.0,12.0,53,0.00,,,0.00,Wunderground v.1.15,2013-10-08 19:55:00,
2013-10-08 15:00:00,77.4,57.9,30.01,NE,46,4.0,12.0,51,0.00,,,0.00,Wunderground v.1.15,2013-10-08 20:00:00,
2013-10-08 15:05:00,77.2,57.1,30.01,NNW,328,4.0,12.0,50,0.00,,,0.00,Wunderground v.1.15,2013-10-08 20:05:00,
2013-10-08 15:15:00,77.2,56.6,30.00,NNW,336,4.0,12.0,49,0.00,,,0.00,Wunderground v.1.15,2013-10-08 20:15:00,
2013-10-08 15:20:00,77.7,57.6,30.00,NNW,332,4.0,4.0,50,0.00,,,0.00,Wunderground v.1.15,2013-10-08 20:20:00,
2013-10-08 15:25:00,78.0,56.7,30.00,North,8,2.0,12.0,48,0.00,,,0.00,Wunderground v.1.15,2013-10-08 20:25:00,
2013-10-08 15:30:00,77.6,56.9,30.00,North,10,3.0,12.0,49,0.00,,,0.00,Wunderground v.1.15,2013-10-08 20:30:00,
2013-10-08 15:35:00,77.4,56.7,30.00,North,349,4.0,12.0,49,0.00,,,0.00,Wunderground v.1.15,2013-10-08 20:35:00,
2013-10-08 15:40:00,77.6,57.5,30.00,NNW,345,4.0,4.0,50,0.00,,,0.00,Wunderground v.1.15,2013-10-08 20:40:00,
2013-10-08 15:50:00,77.7,56.4,30.00,NNW,327,4.0,4.0,48,0.00,,,0.00,Wunderground v.1.15,2013-10-08 20:50:00,
2013-10-08 15:55:00,77.7,55.3,30.00,North,8,5.0,5.0,46,0.00,,,0.00,Wunderground v.1.15,2013-10-08 20:55:00,
2013-10-08 16:00:00,77.5,55.7,30.00,NNE,23,4.0,12.0,47,0.00,,,0.00,Wunderground v.1.15,2013-10-08 21:00:00,
2013-10-08 16:05:00,77.4,56.2,30.00,NE,37,4.0,12.0,48,0.00,,,0.00,Wunderground v.1.15,2013-10-08 21:05:00,
2013-10-08 16:10:00,77.4,56.7,30.00,NW,315,3.0,3.0,49,0.00,,,0.00,Wunderground v.1.15,2013-10-08 21:10:00,
2013-10-08 16:20:00,77.4,55.0,30.00,NW,316,4.0,4.0,46,0.00,,,0.00,Wunderground v.1.15,2013-10-08 21:20:00,
2013-10-08 16:25:00,77.4,55.0,30.00,NE,44,4.0,12.0,46,0.00,,,0.00,Wunderground v.1.15,2013-10-08 21:25:00,
2013-10-08 16:30:00,77.0,55.2,30.00,NNE,32,4.0,12.0,47,0.00,,,0.00,Wunderground v.1.15,2013-10-08 21:30:00,
2013-10-08 16:35:00,77.1,55.3,30.00,NE,34,4.0,12.0,47,0.00,,,0.00,Wunderground v.1.15,2013-10-08 21:35:00,
2013-10-08 16:40:00,77.2,56.0,30.00,NNW,336,4.0,4.0,48,0.00,,,0.00,Wunderground v.1.15,2013-10-08 21:40:00,
2013-10-08 16:45:00,77.1,55.9,30.00,North,358,4.0,12.0,48,0.00,,,0.00,Wunderground v.1.15,2013-10-08 21:45:00,
2013-10-08 16:55:00,77.0,56.9,30.00,NE,34,3.0,12.0,50,0.00,,,0.00,Wunderground v.1.15,2013-10-08 21:55:00,
2013-10-08 17:00:00,77.4,56.7,30.00,NNE,19,1.0,12.0,49,0.00,,,0.00,Wunderground v.1.15,2013-10-08 22:00:00,
2013-10-08 17:05:00,77.3,56.6,30.00,NNW,334,2.0,12.0,49,0.00,,,0.00,Wunderground v.1.15,2013-10-08 22:05:00,
2013-10-08 17:10:00,77.2,56.6,30.00,NNE,13,4.0,12.0,49,0.00,,,0.00,Wunderground v.1.15,2013-10-08 22:10:00,
2013-10-08 17:15:00,76.8,56.2,30.00,NE,39,5.0,12.0,49,0.00,,,0.00,Wunderground v.1.15,2013-10-08 22:15:00,
2013-10-08 17:25:00,76.8,56.2,30.00,NNE,18,3.0,12.0,49,0.00,,,0.00,Wunderground v.1.15,2013-10-08 22:25:00,
2013-10-08 17:30:00,76.8,56.8,30.00,NNW,341,3.0,3.0,50,0.00,,,0.00,Wunderground v.1.15,2013-10-08 22:30:00,
2013-10-08 17:35:00,76.7,57.7,30.00,NW,304,3.0,12.0,52,0.00,,,0.00,Wunderground v.1.15,2013-10-08 22:35:00,
2013-10-08 17:40:00,76.4,56.4,30.00,NE,39,4.0,12.0,50,0.00,,,0.00,Wunderground v.1.15,2013-10-08 22:40:00,
2013-10-08 17:45:00,76.2,56.7,30.00,NNE,32,4.0,12.0,51,0.00,,,0.00,Wunderground v.1.15,2013-10-08 22:45:00,
2013-10-08 17:50:00,76.1,57.2,30.00,North,349,3.0,3.0,52,0.00,,,0.00,Wunderground v.1.15,2013-10-08 22:50:00,
2013-10-08 17:55:00,76.1,56.7,30.00,NW,319,3.0,12.0,51,0.00,,,0.00,Wunderground v.1.15,2013-10-08 22:55:00,
2013-10-08 18:00:00,75.9,55.9,30.00,NNW,339,2.0,12.0,50,0.00,,,0.00,Wunderground v.1.15,2013-10-08 23:00:00,
2013-10-08 18:05:00,75.8,56.4,30.00,NW,319,3.0,12.0,51,0.00,,,0.00,Wunderground v.1.15,2013-10-08 23:05:00,
2013-10-08 18:10:00,75.6,57.8,30.00,NNW,342,2.0,12.0,54,0.00,,,0.00,Wunderground v.1.15,2013-10-08 23:10:00,
2013-10-08 18:15:00,75.4,56.5,30.00,North,6,2.0,12.0,52,0.00,,,0.00,Wunderground v.1.15,2013-10-08 23:15:00,
2013-10-08 18:20:00,75.1,56.8,30.01,North,353,2.0,2.0,53,0.00,,,0.00,Wunderground v.1.15,2013-10-08 23:20:00,
2013-10-08 18:30:00,74.5,57.3,30.01,NNW,329,1.0,12.0,55,0.00,,,0.00,Wunderground v.1.15,2013-10-08 23:30:00,
2013-10-08 18:35:00,74.0,56.8,30.01,North,6,1.0,12.0,55,0.00,,,0.00,Wunderground v.1.15,2013-10-08 23:35:00,
2013-10-08 18:40:00,73.4,57.2,30.01,NW,314,1.0,1.0,57,0.00,,,0.00,Wunderground v.1.15,2013-10-08 23:40:00,
2013-10-08 18:45:00,72.6,57.4,30.01,NW,314,1.0,12.0,59,0.00,,,0.00,Wunderground v.1.15,2013-10-08 23:45:00,
2013-10-08 18:50:00,71.9,56.8,30.01,NW,317,1.0,12.0,59,0.00,,,0.00,Wunderground v.1.15,2013-10-08 23:50:00,
2013-10-08 18:55:00,71.5,56.9,30.01,NNW,327,1.0,12.0,60,0.00,,,0.00,Wunderground v.1.15,2013-10-08 23:55:00,
2013-10-08 19:00:00,71.2,57.5,30.01,North,6,1.0,1.0,62,0.00,,,0.00,Wunderground v.1.15,2013-10-09 00:00:00,
2013-10-08 19:05:00,70.7,57.9,30.01,North,2,1.0,12.0,64,0.00,,,0.00,Wunderground v.1.15,2013-10-09 00:05:00,
2013-10-08 19:10:00,70.3,58.0,30.01,NNW,330,0.0,12.0,65,0.00,,,0.00,Wunderground v.1.15,2013-10-09 00:10:00,
2013-10-08 19:15:00,69.9,58.0,30.01,NNW,330,0.0,12.0,66,0.00,,,0.00,Wunderground v.1.15,2013-10-09 00:15:00,
2013-10-08 19:20:00,69.4,58.0,30.01,NNW,330,0.0,12.0,67,0.00,,,0.00,Wunderground v.1.15,2013-10-09 00:20:00,
2013-10-08 19:25:00,69.0,57.6,30.01,NNW,330,0.0,12.0,67,0.00,,,0.00,Wunderground v.1.15,2013-10-09 00:25:00,
2013-10-08 19:35:00,68.1,58.7,30.01,NNW,330,0.0,12.0,72,0.00,,,0.00,Wunderground v.1.15,2013-10-09 00:35:00,
2013-10-08 19:40:00,67.4,57.7,30.01,NNW,330,0.0,12.0,71,0.00,,,0.00,Wunderground v.1.15,2013-10-09 00:40:00,
2013-10-08 19:45:00,67.1,58.2,30.02,NNW,330,0.0,12.0,73,0.00,,,0.00,Wunderground v.1.15,2013-10-09 00:45:00,
2013-10-08 19:50:00,66.9,60.5,30.01,NNW,330,0.0,12.0,80,0.00,,,0.00,Wunderground v.1.15,2013-10-09 00:50:00,
2013-10-08 19:55:00,66.4,61.1,30.02,NNW,330,0.0,12.0,83,0.00,,,0.00,Wunderground v.1.15,2013-10-09 00:55:00,
2013-10-08 20:05:00,64.8,58.8,30.02,NNW,330,0.0,12.0,81,0.00,,,0.00,Wunderground v.1.15,2013-10-09 01:05:00,
2013-10-08 20:10:00,64.9,58.6,30.02,NNW,330,0.0,12.0,80,0.00,,,0.00,Wunderground v.1.15,2013-10-09 01:10:00,
2013-10-08 20:15:00,64.9,58.2,30.02,NNW,330,0.0,12.0,79,0.00,,,0.00,Wunderground v.1.15,2013-10-09 01:15:00,
2013-10-08 20:20:00,65.0,58.3,30.02,NNW,330,0.0,12.0,79,0.00,,,0.00,Wunderground v.1.15,2013-10-09 01:20:00,
2013-10-08 20:25:00,65.0,59.0,30.02,NNW,330,0.0,12.0,81,0.00,,,0.00,Wunderground v.1.15,2013-10-09 01:25:00,
2013-10-08 20:30:00,63.3,59.0,30.03,East,97,1.0,1.0,86,0.00,,,0.00,Wunderground v.1.15,2013-10-09 01:30:00,
2013-10-08 20:40:00,62.9,59.3,30.03,East,97,0.0,12.0,88,0.00,,,0.00,Wunderground v.1.15,2013-10-09 01:40:00,
2013-10-08 20:45:00,63.0,60.0,30.03,SE,144,0.0,12.0,90,0.00,,,0.00,Wunderground v.1.15,2013-10-09 01:45:00,
2013-10-08 20:50:00,62.5,59.5,30.03,SE,143,0.0,12.0,90,0.00,,,0.00,Wunderground v.1.15,2013-10-09 01:50:00,
2013-10-08 20:55:00,62.1,59.1,30.03,SE,143,0.0,12.0,90,0.00,,,0.00,Wunderground v.1.15,2013-10-09 01:55:00,
2013-10-08 21:00:00,61.8,59.1,30.03,SE,143,0.0,12.0,91,0.00,,,0.00,Wunderground v.1.15,2013-10-09 02:00:00,
2013-10-08 21:10:00,61.9,59.9,30.03,SE,143,0.0,12.0,93,0.00,,,0.00,Wunderground v.1.15,2013-10-09 02:10:00,
2013-10-08 21:15:00,61.7,59.7,30.03,SE,144,0.0,12.0,93,0.00,,,0.00,Wunderground v.1.15,2013-10-09 02:15:00,
2013-10-08 21:20:00,61.6,59.9,30.04,SE,144,0.0,12.0,94,0.00,,,0.00,Wunderground v.1.15,2013-10-09 02:20:00,
2013-10-08 21:25:00,61.5,59.8,30.04,SE,144,0.0,12.0,94,0.00,,,0.00,Wunderground v.1.15,2013-10-09 02:25:00,
2013-10-08 21:30:00,61.3,59.6,30.04,SE,143,0.0,12.0,94,0.00,,,0.00,Wunderground v.1.15,2013-10-09 02:30:00,
2013-10-08 21:35:00,61.0,59.3,30.04,SE,143,0.0,12.0,94,0.00,,,0.00,Wunderground v.1.15,2013-10-09 02:35:00,
2013-10-08 21:45:00,60.4,59.0,30.04,SE,143,0.0,12.0,95,0.00,,,0.00,Wunderground v.1.15,2013-10-09 02:45:00,
2013-10-08 21:50:00,60.4,58.7,30.04,SE,143,0.0,12.0,94,0.00,,,0.00,Wunderground v.1.15,2013-10-09 02:50:00,
2013-10-08 21:55:00,60.5,58.2,30.04,SE,143,0.0,12.0,92,0.00,,,0.00,Wunderground v.1.15,2013-10-09 02:55:00,
2013-10-08 22:00:00,60.9,58.3,30.04,SE,143,0.0,12.0,91,0.00,,,0.00,Wunderground v.1.15,2013-10-09 03:00:00,
2013-10-08 22:05:00,60.9,57.9,30.04,SE,142,0.0,12.0,90,0.00,,,0.00,Wunderground v.1.15,2013-10-09 03:05:00,
2013-10-08 22:10:00,60.7,57.7,30.04,South,180,0.0,12.0,90,0.00,,,0.00,Wunderground v.1.15,2013-10-09 03:10:00,
2013-10-08 22:20:00,60.6,58.3,30.04,SSW,194,0.0,12.0,92,0.00,,,0.00,Wunderground v.1.15,2013-10-09 03:20:00,
2013-10-08 22:25:00,60.4,58.1,30.04,SSW,194,0.0,12.0,92,0.00,,,0.00,Wunderground v.1.15,2013-10-09 03:25:00,
2013-10-08 22:30:00,60.2,57.9,30.04,SSW,194,0.0,12.0,92,0.00,,,0.00,Wunderground v.1.15,2013-10-09 03:30:00,
2013-10-08 22:35:00,60.0,58.0,30.04,SSW,194,0.0,12.0,93,0.00,,,0.00,Wunderground v.1.15,2013-10-09 03:35:00,
2013-10-08 22:40:00,59.6,57.6,30.04,SSW,194,0.0,12.0,93,0.00,,,0.00,Wunderground v.1.15,2013-10-09 03:40:00,
2013-10-08 22:45:00,59.5,58.1,30.04,SSW,194,0.0,12.0,95,0.00,,,0.00,Wunderground v.1.15,2013-10-09 03:45:00,
2013-10-08 22:50:00,59.6,58.5,30.04,SSW,194,0.0,12.0,96,0.00,,,0.00,Wunderground v.1.15,2013-10-09 03:50:00,
2013-10-08 22:55:00,59.5,58.4,30.04,SSW,194,0.0,12.0,96,0.00,,,0.00,Wunderground v.1.15,2013-10-09 03:55:00,
2013-10-08 23:00:00,59.3,58.2,30.04,SSW,193,0.0,12.0,96,0.00,,,0.00,Wunderground v.1.15,2013-10-09 04:00:00,
2013-10-08 23:05:00,59.0,57.9,30.04,SSW,193,0.0,12.0,96,0.00,,,0.00,Wunderground v.1.15,2013-10-09 04:05:00,
2013-10-08 23:10:00,58.7,57.6,30.04,SSW,193,0.0,12.0,96,0.00,,,0.00,Wunderground v.1.15,2013-10-09 04:10:00,
2013-10-08 23:15:00,58.6,57.5,30.04,SSW,193,0.0,12.0,96,0.00,,,0.00,Wunderground v.1.15,2013-10-09 04:15:00,
2013-10-08 23:20:00,58.4,57.3,30.04,SSW,193,0.0,12.0,96,0.00,,,0.00,Wunderground v.1.15,2013-10-09 04:20:00,
2013-10-08 23:25:00,58.4,57.6,30.04,SSW,193,0.0,12.0,97,0.00,,,0.00,Wunderground v.1.15,2013-10-09 04:25:00,
2013-10-08 23:30:00,58.3,57.5,30.04,SSW,193,0.0,12.0,97,0.00,,,0.00,Wunderground v.1.15,2013-10-09 04:30:00,
2013-10-08 23:35:00,58.2,57.4,30.04,SSW,193,0.0,12.0,97,0.00,,,0.00,Wunderground v.1.15,2013-10-09 04:35:00,
2013-10-08 23:40:00,58.1,57.3,30.03,SSW,193,0.0,12.0,97,0.00,,,0.00,Wunderground v.1.15,2013-10-09 04:40:00,
2013-10-08 23:45:00,57.9,57.1,30.04,SSW,193,0.0,12.0,97,0.00,,,0.00,Wunderground v.1.15,2013-10-09 04:45:00,
2013-10-08 23:50:00,57.6,56.8,30.04,SSW,193,0.0,12.0,97,0.00,,,0.00,Wunderground v.1.15,2013-10-09 04:50:00,
2013-10-08 23:55:00,57.6,56.8,30.04,SSW,193,0.0,12.0,97,0.00,,,0.00,Wunderground v.1.15,2013-10-09 04:55:00,